Time;durP1;ratioP1;P1;durP2;ratioP2;P2;SDS_P1;SDS_P2;PMS_P1;PMS_P2;Temp;Humidity;BMP_temperature;BMP_pressure;BME280_temperature;BME280_humidity;BME280_pressure;Samples;Min_cycle;Max_cycle;Signal;HPM_P1;HPM_P2
2022/12/26 00:01:26;;;;;;;48.40;21.45;;;;;;;8.39;100.00;100969.44;5070548;28;20047;-36
2022/12/26 00:03:52;;;;;;;45.77;20.33;;;;;;;8.37;100.00;100968.72;5069256;28;20036;-34
2022/12/26 00:06:23;;;;;;;54.72;19.70;;;;;;;8.40;100.00;100965.78;5070981;28;20032;-39
2022/12/26 00:08:48;;;;;;;39.47;18.60;;;;;;;8.41;100.00;100977.34;5070488;28;20035;-41
2022/12/26 00:11:14;;;;;;;42.25;19.55;;;;;;;8.40;100.00;100983.69;5070463;28;20527;-40
2022/12/26 00:13:40;;;;;;;45.30;20.40;;;;;;;8.38;100.00;100978.47;5069314;28;20107;-39
2022/12/26 00:16:10;;;;;;;40.55;20.05;;;;;;;8.37;100.00;100974.09;5070325;28;20042;-39
2022/12/26 00:18:35;;;;;;;49.13;21.48;;;;;;;8.38;100.00;100977.66;5070808;28;20032;-38
2022/12/26 00:21:01;;;;;;;42.22;21.80;;;;;;;8.38;100.00;100981.16;5069072;28;20031;-37
2022/12/26 00:23:26;;;;;;;51.78;23.17;;;;;;;8.37;100.00;100984.81;5070341;28;20028;-37
2022/12/26 00:25:51;;;;;;;54.92;23.52;;;;;;;8.35;100.00;100978.81;5070232;28;20029;-36
2022/12/26 00:28:17;;;;;;;50.72;22.92;;;;;;;8.35;100.00;100987.69;5070096;28;20400;-35
2022/12/26 00:30:42;;;;;;;49.70;22.48;;;;;;;8.33;100.00;100995.03;5070255;28;20090;-37
2022/12/26 00:33:07;;;;;;;54.75;24.08;;;;;;;8.35;100.00;100994.91;5070523;28;20059;-36
2022/12/26 00:35:32;;;;;;;54.55;24.50;;;;;;;8.33;100.00;100987.00;5071534;28;20090;-38
2022/12/26 00:37:58;;;;;;;61.83;25.73;;;;;;;8.33;100.00;100997.72;5071599;28;20012;-35
2022/12/26 00:40:23;;;;;;;59.78;25.65;;;;;;;8.32;100.00;100987.16;5072041;28;20058;-35
2022/12/26 00:42:48;;;;;;;63.65;26.55;;;;;;;8.27;100.00;100987.66;5070610;28;20028;-36
2022/12/26 00:45:14;;;;;;;54.95;24.35;;;;;;;8.27;100.00;100979.63;5070113;28;20031;-35
2022/12/26 00:47:39;;;;;;;55.35;23.52;;;;;;;8.27;100.00;100984.16;5070030;28;20029;-35
2022/12/26 00:50:05;;;;;;;53.95;24.40;;;;;;;8.26;100.00;100972.56;5070094;28;20039;-36
2022/12/26 00:52:30;;;;;;;53.90;23.02;;;;;;;8.24;100.00;100968.38;5069948;28;20043;-35
2022/12/26 00:54:56;;;;;;;54.20;23.52;;;;;;;8.25;100.00;100959.34;5070171;28;20027;-35
2022/12/26 00:57:21;;;;;;;57.97;23.35;;;;;;;8.25;100.00;100959.34;5068315;28;20029;-35
2022/12/26 00:59:46;;;;;;;53.65;22.40;;;;;;;8.23;100.00;100966.69;5069955;28;20059;-36
2022/12/26 01:04:56;;;;;;;63.25;22.55;;;;;;;8.21;100.00;100963.34;5069979;28;20658;-36
2022/12/26 01:07:21;;;;;;;54.13;22.98;;;;;;;8.22;100.00;100965.88;5070029;28;20115;-38
2022/12/26 01:09:46;;;;;;;55.03;23.08;;;;;;;8.23;100.00;100964.03;5070060;28;20426;-36
2022/12/26 01:12:12;;;;;;;49.75;21.73;;;;;;;8.21;100.00;100963.34;5069844;28;20036;-36
2022/12/26 01:14:37;;;;;;;46.50;20.30;;;;;;;8.20;100.00;100961.66;5069827;28;20039;-36
2022/12/26 01:17:02;;;;;;;45.28;20.05;;;;;;;8.18;100.00;100964.50;5069725;28;20052;-36
2022/12/26 01:19:28;;;;;;;55.72;22.30;;;;;;;8.18;100.00;100966.34;5069871;28;20044;-35
2022/12/26 01:21:53;;;;;;;49.28;20.83;;;;;;;8.19;100.00;100965.34;5070485;28;20029;-36
2022/12/26 01:24:18;;;;;;;56.08;21.83;;;;;;;8.16;100.00;100954.94;5070392;28;20028;-37
2022/12/26 01:26:45;;;;;;;52.70;21.63;;;;;;;8.14;100.00;100961.31;5070490;28;20026;-38
2022/12/26 01:29:10;;;;;;;48.42;21.52;;;;;;;8.09;100.00;100955.59;5068952;28;20139;-36
2022/12/26 01:31:35;;;;;;;47.45;21.17;;;;;;;8.06;100.00;100961.28;5069737;28;20384;-36
2022/12/26 01:34:01;;;;;;;49.08;20.63;;;;;;;8.04;100.00;100960.63;5069668;28;20020;-38
2022/12/26 01:36:26;;;;;;;47.25;20.73;;;;;;;8.03;100.00;100955.41;5073541;28;20044;-38
2022/12/26 01:38:51;;;;;;;46.67;19.80;;;;;;;8.02;100.00;100980.53;5073068;28;20063;-37
2022/12/26 01:41:18;;;;;;;48.95;19.58;;;;;;;7.98;100.00;100985.41;5073141;28;20024;-36
2022/12/26 01:43:49;;;;;;;39.08;19.05;;;;;;;7.98;100.00;100989.88;5072909;28;20037;-35
2022/12/26 01:46:15;;;;;;;48.40;19.75;;;;;;;7.97;100.00;100991.75;5073462;28;20283;-36
2022/12/26 01:48:41;;;;;;;39.78;19.48;;;;;;;8.00;100.00;100977.16;5071759;28;20105;-36
2022/12/26 01:51:06;;;;;;;47.47;21.17;;;;;;;7.97;100.00;100972.97;5073006;28;20032;-39
2022/12/26 01:53:33;;;;;;;46.28;20.75;;;;;;;7.98;100.00;100972.00;5073035;28;20017;-38
2022/12/26 01:56:10;;;;;;;42.80;21.80;;;;;;;7.97;100.00;100961.41;5073151;28;20082;-36
2022/12/26 01:58:39;;;;;;;40.50;21.08;;;;;;;7.97;100.00;100966.78;5072748;28;20025;-35
2022/12/26 02:01:06;;;;;;;48.08;21.77;;;;;;;7.98;100.00;100963.94;5071675;28;20110;-37
2022/12/26 02:06:17;;;;;;;38.88;19.20;;;;;;;7.98;100.00;100955.91;5073630;28;20062;-34
2022/12/26 02:08:44;;;;;;;36.05;17.38;;;;;;;7.98;100.00;100955.91;5072482;28;20259;-34
2022/12/26 02:11:17;;;;;;;40.80;18.48;;;;;;;7.99;100.00;100960.25;5072738;28;20456;-34
2022/12/26 02:13:42;;;;;;;32.25;17.88;;;;;;;8.01;100.00;100962.78;5071242;28;20050;-35
2022/12/26 02:16:11;;;;;;;31.00;16.55;;;;;;;8.03;100.00;100964.31;5072625;28;20021;-34
2022/12/26 02:18:36;;;;;;;37.90;16.48;;;;;;;8.01;100.00;100963.63;5071210;28;20020;-35
2022/12/26 02:21:11;;;;;;;34.28;17.35;;;;;;;8.03;100.00;100956.28;5074070;28;20021;-34
2022/12/26 02:24:02;;;;;;;36.97;17.48;;;;;;;8.00;100.00;100956.56;5071400;28;20101;-36
2022/12/26 02:26:39;;;;;;;40.30;17.98;;;;;;;8.03;100.00;100950.03;5071263;28;20013;-34
2022/12/26 02:29:23;;;;;;;39.88;18.88;;;;;;;8.07;100.00;100940.69;5071975;28;20040;-35
2022/12/26 02:32:08;;;;;;;42.65;19.17;;;;;;;8.10;100.00;100946.53;5072503;28;20424;-34
2022/12/26 02:34:43;;;;;;;37.33;18.38;;;;;;;8.13;100.00;100951.56;5070828;28;20024;-36
2022/12/26 02:37:41;;;;;;;38.95;19.20;;;;;;;8.11;100.00;100950.94;5071225;28;20024;-37
2022/12/26 02:40:09;;;;;;;;;;;;;;;8.09;100.00;100960.97;5071304;28;20514;-34
2022/12/26 02:42:37;;;;;;;;;;;;;;;8.10;100.00;100967.16;5072519;28;19915;-35
2022/12/26 02:48:16;;;;;;;34.30;17.95;;;;;;;8.03;100.00;100956.28;5071904;28;20047;-35
2022/12/26 03:14:32;;;;;;;32.70;17.70;;;;;;;7.94;100.00;100965.25;5069844;28;20111;-38
2022/12/26 03:17:21;;;;;;;28.55;16.02;;;;;;;7.93;100.00;100977.00;5068507;28;20029;-36
2022/12/26 03:19:59;;;;;;;32.55;16.95;;;;;;;7.92;100.00;100980.66;5069973;28;20368;-36
2022/12/26 03:22:30;;;;;;;26.70;16.13;;;;;;;7.93;100.00;100955.56;5069944;28;20093;-35
2022/12/26 03:27:39;;;;;;;24.88;14.65;;;;;;;7.94;100.00;100937.63;5070560;28;20097;-35
2022/12/26 03:32:48;;;;;;;25.85;13.95;;;;;;;7.92;100.00;100932.41;5071217;28;20518;-38
2022/12/26 03:35:14;;;;;;;23.73;13.23;;;;;;;7.93;100.00;100944.84;5071063;28;20021;-34
2022/12/26 03:37:54;;;;;;;18.67;12.27;;;;;;;7.94;100.00;100943.00;5069660;28;20502;-35
2022/12/26 04:19:25;;;;;;;15.13;7.38;;;;;;;7.84;100.00;100951.97;5069719;28;20048;-38
2022/12/26 04:44:31;;;;;;;12.55;5.25;;;;;;;7.86;100.00;100925.88;5069023;28;20552;-35
2022/12/26 04:46:56;;;;;;;8.30;5.05;;;;;;;7.88;100.00;100923.88;5068639;28;20025;-36
2022/12/26 04:52:10;;;;;;;11.73;4.97;;;;;;;7.84;100.00;100909.13;5069941;28;20035;-37
2022/12/26 04:54:36;;;;;;;13.35;4.53;;;;;;;7.83;100.00;100910.13;5068684;28;20059;-35
2022/12/26 04:57:01;;;;;;;10.38;3.85;;;;;;;7.82;100.00;100903.09;5068657;28;20029;-38
2022/12/26 04:59:27;;;;;;;11.07;3.65;;;;;;;7.84;100.00;100913.63;5070034;28;20395;-36
2022/12/26 05:10:14;;;;;;;8.50;3.42;;;;;;;7.92;100.00;100919.03;5071148;28;20063;-37
2022/12/26 05:12:40;;;;;;;5.70;3.15;;;;;;;7.94;100.00;100929.59;5072399;28;20044;-35
2022/12/26 05:15:05;;;;;;;7.63;3.30;;;;;;;7.94;100.00;100911.66;5073633;28;20483;-36
2022/12/26 05:28:40;;;;;;;8.57;2.53;;;;;;;8.02;100.00;100910.84;5073205;28;20055;-35
2022/12/26 05:31:06;;;;;;;11.07;3.40;;;;;;;8.03;100.00;100913.38;5073488;28;20088;-35
2022/12/26 05:36:16;;;;;;;9.73;2.63;;;;;;;8.03;100.00;100904.47;5073110;28;20040;-35
2022/12/26 05:38:42;;;;;;;9.07;2.53;;;;;;;8.01;100.00;100915.38;5071878;28;20024;-36
2022/12/26 05:41:07;;;;;;;7.78;3.00;;;;;;;8.02;100.00;100917.03;5073617;28;20356;-36
2022/12/26 05:43:32;;;;;;;4.38;2.72;;;;;;;8.04;100.00;100919.56;5071721;28;20021;-35
2022/12/26 05:45:58;;;;;;;10.65;3.08;;;;;;;8.02;100.00;100914.38;5073178;28;20036;-36
2022/12/26 05:48:23;;;;;;;10.23;3.42;;;;;;;8.02;100.00;100926.94;5073924;28;20459;-37
2022/12/26 05:50:48;;;;;;;7.90;3.20;;;;;;;7.99;100.00;100933.47;5073272;28;20033;-36
2022/12/26 05:53:14;;;;;;;7.43;3.25;;;;;;;7.99;100.00;100922.75;5071757;28;20024;-37
2022/12/26 05:55:39;;;;;;;8.45;3.42;;;;;;;7.99;100.00;100921.91;5071803;28;20056;-37
2022/12/26 05:58:05;;;;;;;10.65;3.25;;;;;;;8.03;100.00;100929.47;5072746;28;20036;-36
2022/12/26 06:00:30;;;;;;;7.32;3.90;;;;;;;8.03;100.00;100924.09;5073088;28;20403;-35
2022/12/26 06:02:57;;;;;;;9.93;3.67;;;;;;;8.04;100.00;100931.13;5072098;28;20048;-35
2022/12/26 06:05:23;;;;;;;9.25;3.83;;;;;;;8.09;100.00;100934.16;5075311;28;20035;-35
2022/12/26 06:07:48;;;;;;;7.13;3.40;;;;;;;8.11;100.00;100931.31;5074110;28;20508;-36
2022/12/26 06:10:13;;;;;;;5.20;3.33;;;;;;;8.08;100.00;100932.50;5073726;28;20024;-36
2022/12/26 06:12:39;;;;;;;4.60;3.75;;;;;;;8.09;100.00;100923.44;5072681;28;20032;-36
2022/12/26 06:15:05;;;;;;;10.18;4.10;;;;;;;8.11;100.00;100926.81;5073100;28;20033;-36
2022/12/26 06:17:30;;;;;;;7.47;3.55;;;;;;;8.11;100.00;100932.16;5072953;28;20028;-36
2022/12/26 06:19:56;;;;;;;7.55;3.38;;;;;;;8.10;100.00;100935.81;5073148;28;20097;-37
2022/12/26 06:22:21;;;;;;;7.47;3.72;;;;;;;8.11;100.00;100937.53;5072985;28;20028;-36
2022/12/26 06:24:47;;;;;;;10.43;3.40;;;;;;;8.10;100.00;100930.47;5073206;28;20067;-36
2022/12/26 06:27:12;;;;;;;6.63;3.95;;;;;;;8.11;100.00;100926.81;5072904;28;20040;-36
2022/12/26 06:29:37;;;;;;;8.52;3.60;;;;;;;8.11;100.00;100928.66;5072752;28;20051;-35
2022/12/26 06:32:03;;;;;;;10.63;3.63;;;;;;;8.14;100.00;100939.88;5072189;28;20059;-35
2022/12/26 06:34:29;;;;;;;9.43;3.55;;;;;;;8.14;100.00;100925.63;5071009;28;20025;-35
2022/12/26 06:36:54;;;;;;;9.85;3.60;;;;;;;8.18;100.00;100936.84;5072258;28;20414;-35
2022/12/26 06:39:20;;;;;;;5.47;3.20;;;;;;;8.18;100.00;100926.13;5072462;28;20028;-36
2022/12/26 06:41:46;;;;;;;14.55;3.40;;;;;;;8.22;100.00;100932.84;5072261;28;20032;-35
2022/12/26 06:44:11;;;;;;;11.02;3.90;;;;;;;8.24;100.00;100942.41;5072326;28;20033;-36
2022/12/26 06:46:36;;;;;;;5.90;2.70;;;;;;;8.27;100.00;100934.03;5072429;28;20115;-36
2022/12/26 06:49:02;;;;;;;6.68;3.40;;;;;;;8.30;100.00;100924.84;5072080;28;20116;-36
2022/12/26 06:51:28;;;;;;;13.90;3.17;;;;;;;8.33;100.00;100936.06;5072122;28;20052;-35
2022/12/26 06:53:53;;;;;;;7.43;3.03;;;;;;;8.33;100.00;100916.44;5071907;28;20020;-35
2022/12/26 06:56:21;;;;;;;9.75;2.80;;;;;;;8.32;100.00;100934.38;5070612;28;20051;-37
2022/12/26 06:58:47;;;;;;;9.88;3.40;;;;;;;8.36;100.00;100932.19;5071816;28;20052;-37
2022/12/26 07:01:17;;;;;;;9.90;3.20;;;;;;;8.38;100.00;100945.47;5071895;28;20456;-37
2022/12/26 07:03:43;;;;;;;9.07;2.70;;;;;;;8.41;100.00;100913.81;5072153;28;20035;-37
2022/12/26 07:06:22;;;;;;;9.70;3.00;;;;;;;8.40;100.00;100919.31;5072093;28;20468;-38
2022/12/26 07:08:48;;;;;;;7.55;2.65;;;;;;;8.38;100.00;100914.09;5071311;28;20052;-37
2022/12/26 07:11:21;;;;;;;8.65;3.08;;;;;;;8.39;100.00;100910.44;5071880;28;20091;-34
2022/12/26 07:13:46;;;;;;;9.50;3.00;;;;;;;8.41;100.00;100911.13;5072262;28;20107;-37
2022/12/26 07:16:12;;;;;;;11.60;2.88;;;;;;;8.41;100.00;100921.84;5071552;28;20112;-35
2022/12/26 07:18:37;;;;;;;6.93;2.90;;;;;;;8.40;100.00;100912.13;5071994;28;20033;-37
2022/12/26 07:21:07;;;;;;;9.63;3.08;;;;;;;8.42;100.00;100931.56;5072192;28;20062;-37
2022/12/26 07:23:32;;;;;;;13.60;3.67;;;;;;;8.40;100.00;100935.41;5071649;28;20033;-37
2022/12/26 07:25:58;;;;;;;11.93;3.55;;;;;;;8.36;100.00;100934.88;5071464;28;20052;-35
2022/12/26 07:28:23;;;;;;;16.58;3.28;;;;;;;8.36;100.00;100943.75;5071588;28;20045;-35
2022/12/26 07:30:49;;;;;;;9.95;3.10;;;;;;;8.35;100.00;100954.66;5071584;28;20128;-34
2022/12/26 07:33:15;;;;;;;8.90;2.95;;;;;;;8.37;100.00;100952.63;5070391;28;20018;-38
2022/12/26 07:35:40;;;;;;;12.27;3.53;;;;;;;8.39;100.00;100949.81;5071089;28;20036;-36
2022/12/26 07:38:05;;;;;;;11.90;3.08;;;;;;;8.41;100.00;100937.94;5069268;28;20359;-35
2022/12/26 07:40:31;;;;;;;14.18;3.80;;;;;;;8.44;100.00;100948.34;5070822;28;20028;-35
2022/12/26 07:42:56;;;;;;;11.43;2.60;;;;;;;8.46;100.00;100957.06;5070189;28;20083;-36
2022/12/26 07:45:21;;;;;;;19.27;3.78;;;;;;;8.44;100.00;100953.69;5070713;28;20064;-35
2022/12/26 07:47:47;;;;;;;10.90;2.53;;;;;;;8.44;100.00;100945.66;5071077;28;20021;-35
2022/12/26 07:50:12;;;;;;;15.10;2.70;;;;;;;8.43;100.00;100959.25;5071317;28;20083;-36
2022/12/26 07:52:37;;;;;;;9.13;2.50;;;;;;;8.46;100.00;100962.44;5071525;28;20024;-36
2022/12/26 07:55:03;;;;;;;10.75;2.95;;;;;;;8.45;100.00;100987.59;5070562;28;20115;-37
2022/12/26 07:57:29;;;;;;;18.95;3.05;;;;;;;8.43;100.00;100996.78;5070578;28;20372;-35
2022/12/26 07:59:54;;;;;;;15.60;3.28;;;;;;;8.42;100.00;101017.38;5070618;28;20044;-35
2022/12/26 08:02:19;;;;;;;10.80;3.15;;;;;;;8.40;100.00;101010.50;5070568;28;20028;-34
2022/12/26 08:04:45;;;;;;;11.80;3.22;;;;;;;8.36;100.00;101007.28;5070441;28;20024;-37
2022/12/26 08:07:10;;;;;;;10.38;2.53;;;;;;;8.32;100.00;101008.59;5070499;28;20058;-38
2022/12/26 08:09:37;;;;;;;14.25;2.85;;;;;;;8.26;100.00;101025.34;5070340;28;20044;-35
2022/12/26 08:12:02;;;;;;;11.20;2.20;;;;;;;8.19;100.00;101027.00;5070697;28;20060;-35
2022/12/26 08:14:28;;;;;;;13.02;2.10;;;;;;;8.13;100.00;101050.75;5070738;28;20059;-36
2022/12/26 08:16:53;;;;;;;20.15;2.83;;;;;;;8.10;100.00;101047.59;5070819;28;20464;-35
2022/12/26 08:19:18;;;;;;;10.07;2.05;;;;;;;8.09;100.00;101056.63;5070402;28;20021;-37
2022/12/26 08:21:44;;;;;;;13.48;2.45;;;;;;;8.05;100.00;101055.25;5070263;28;20429;-39
2022/12/26 08:24:09;;;;;;;14.15;2.03;;;;;;;7.99;100.00;101064.78;5070344;28;20181;-40
2022/12/26 08:26:34;;;;;;;15.20;2.65;;;;;;;7.93;100.00;101065.44;5070382;28;20146;-40
2022/12/26 08:29:00;;;;;;;16.52;2.38;;;;;;;7.90;100.00;101076.47;5070332;28;20052;-39
2022/12/26 08:31:25;;;;;;;15.45;2.60;;;;;;;7.83;100.00;101078.94;5069058;28;20333;-39
2022/12/26 08:33:54;;;;;;;16.60;3.50;;;;;;;7.82;100.00;101087.97;5070338;28;20024;-38
2022/12/26 08:36:19;;;;;;;24.63;2.60;;;;;;;7.82;100.00;101090.66;5070232;28;20036;-36
2022/12/26 08:38:45;;;;;;;26.05;3.33;;;;;;;7.81;100.00;101088.13;5070349;28;20021;-36
2022/12/26 08:41:10;;;;;;;17.95;2.78;;;;;;;7.79;100.00;101092.81;5070002;28;20107;-36
2022/12/26 08:43:36;;;;;;;24.02;3.60;;;;;;;7.83;100.00;101115.63;5071419;28;20040;-36
2022/12/26 08:46:04;;;;;;;31.60;3.30;;;;;;;7.77;100.00;101121.63;5074361;28;20024;-35
2022/12/26 08:48:29;;;;;;;;;;;;;;;7.74;100.00;101136.16;5074860;28;20029;-37
2022/12/26 08:51:00;;;;;;;21.85;3.03;;;;;;;7.59;100.00;101151.94;5073911;28;19934;-35
2022/12/26 08:53:27;;;;;;;36.83;3.10;;;;;;;7.58;100.00;101154.75;5074075;28;20383;-35
2022/12/26 08:55:53;;;;;;;28.83;4.68;;;;;;;7.56;100.00;101162.97;5072723;28;20020;-35
2022/12/26 08:58:18;;;;;;;25.83;3.65;;;;;;;7.46;100.00;101162.22;5073851;28;20369;-36
2022/12/26 09:00:44;;;;;;;21.38;2.72;;;;;;;7.40;100.00;101184.25;5073855;28;20040;-34
2022/12/26 09:03:09;;;;;;;25.00;2.53;;;;;;;7.33;100.00;101180.50;5074221;28;20036;-34
2022/12/26 09:05:34;;;;;;;11.70;2.40;;;;;;;7.24;100.00;101187.59;5074632;28;20112;-34
2022/12/26 09:08:00;;;;;;;17.33;2.33;;;;;;;7.21;100.00;101183.41;5074665;28;20102;-34
2022/12/26 09:10:25;;;;;;;18.90;2.42;;;;;;;7.15;100.00;101181.31;5073978;28;20078;-34
2022/12/26 09:12:50;;;;;;;18.23;1.80;;;;;;;7.14;100.00;101185.00;5073720;28;20036;-35
2022/12/26 09:15:16;;;;;;;22.55;2.28;;;;;;;7.13;100.00;101188.63;5073672;28;20032;-36
2022/12/26 09:17:41;;;;;;;15.18;2.05;;;;;;;7.11;100.00;101201.34;5073443;28;20012;-36
2022/12/26 09:20:07;;;;;;;20.55;2.60;;;;;;;7.05;100.00;101201.94;5073461;28;20020;-37
2022/12/26 09:22:51;;;;;;;18.88;2.58;;;;;;;6.98;100.00;101215.09;5073453;28;20073;-36
2022/12/26 09:25:22;;;;;;;10.88;2.40;;;;;;;6.90;100.00;101216.81;5073226;28;20498;-35
2022/12/26 09:27:48;;;;;;;17.35;3.70;;;;;;;6.86;100.00;101229.66;5073232;28;20048;-35
2022/12/26 09:30:14;;;;;;;8.20;1.70;;;;;;;6.82;100.00;101218.41;5073205;28;20037;-36
2022/12/26 09:32:39;;;;;;;14.30;1.92;;;;;;;6.84;100.00;101236.97;5073575;28;20538;-37
2022/12/26 09:35:05;;;;;;;14.85;2.10;;;;;;;6.87;100.00;101236.66;5073177;28;20025;-35
2022/12/26 09:37:30;;;;;;;12.10;1.65;;;;;;;6.79;100.00;101245.47;5073322;28;20028;-37
2022/12/26 09:39:56;;;;;;;10.68;1.40;;;;;;;6.84;100.00;101252.19;5073201;28;20068;-35
2022/12/26 09:43:09;;;;;;;17.15;1.70;;;;;;;6.92;100.00;101257.66;5073018;28;20048;-37
2022/12/26 09:46:05;;;;;;;15.02;2.20;;;;;;;6.82;100.00;101250.50;5058258;28;20120;-35
2022/12/26 09:48:54;;;;;;;18.75;1.83;;;;;;;6.79;100.00;101260.66;5051986;28;20376;-36
2022/12/26 09:51:20;;;;;;;15.82;2.40;;;;;;;6.82;100.00;101255.03;5052584;28;20417;-35
2022/12/26 09:53:46;;;;;;;18.75;1.92;;;;;;;6.82;100.00;101265.72;5051366;28;20060;-36
2022/12/26 09:56:16;;;;;;;10.20;1.70;;;;;;;6.76;100.00;101272.47;5052352;28;20025;-35
2022/12/26 09:58:49;;;;;;;17.13;2.38;;;;;;;6.72;100.00;101262.25;5051513;28;20357;-37
2022/12/26 10:01:35;;;;;;;13.35;2.22;;;;;;;6.63;100.00;101266.63;5051340;28;20090;-37
2022/12/26 10:04:06;;;;;;;15.55;1.90;;;;;;;6.63;100.00;101280.00;5034418;28;20033;-36
2022/12/26 10:06:43;;;;;;;8.60;1.65;;;;;;;6.59;100.00;101281.28;5051318;28;20040;-36
2022/12/26 10:09:21;;;;;;;9.40;1.40;;;;;;;6.65;100.00;101278.03;5052639;28;20483;-37
2022/12/26 10:11:55;;;;;;;12.40;1.50;;;;;;;6.63;100.00;101288.03;5052454;28;20032;-36
2022/12/26 10:14:36;;;;;;;8.85;1.42;;;;;;;6.65;100.00;101294.06;5051382;28;20036;-37
2022/12/26 10:17:24;;;;;;;16.75;2.42;;;;;;;6.80;100.00;101289.09;5052408;28;20384;-35
2022/12/26 10:20:11;;;;;;;12.48;1.73;;;;;;;6.94;100.00;101291.28;5052288;28;20041;-36
2022/12/26 10:23:25;;;;;;;14.52;1.60;;;;;;;7.39;100.00;101305.72;5052177;28;20021;-36
2022/12/26 10:26:03;;;;;;;10.07;1.48;;;;;;;7.68;100.00;101305.53;5055546;28;20036;-36
2022/12/26 10:28:34;;;;;;;10.45;1.85;;;;;;;7.62;100.00;101306.16;5050802;28;20106;-36
2022/12/26 10:31:05;;;;;;;12.82;1.95;;;;;;;7.66;100.00;101315.56;5050699;28;20033;-36
2022/12/26 10:33:42;;;;;;;12.77;1.40;;;;;;;7.69;100.00;101313.44;5050715;28;20025;-36
2022/12/26 10:36:32;;;;;;;9.73;1.75;;;;;;;7.63;100.00;101326.59;5050778;28;20349;-37
2022/12/26 10:38:58;;;;;;;6.45;1.70;;;;;;;7.65;100.00;101325.44;5052110;28;20550;-36
2022/12/26 10:41:34;;;;;;;9.77;1.30;;;;;;;7.62;100.00;101327.59;5050829;28;20488;-37
2022/12/26 10:44:00;;;;;;;6.90;1.58;;;;;;;7.80;100.00;101330.28;5050759;28;20032;-37
2022/12/26 10:46:31;;;;;;;6.20;1.45;;;;;;;7.76;100.00;101331.56;5050744;28;20025;-35
2022/12/26 10:48:57;;;;;;;9.27;1.70;;;;;;;7.79;100.00;101328.59;5051855;28;20048;-37
2022/12/26 10:51:23;;;;;;;8.77;1.80;;;;;;;7.89;100.00;101329.38;5051679;28;20433;-37
2022/12/26 10:53:51;;;;;;;18.05;1.83;;;;;;;7.93;100.00;101325.41;5051741;28;20108;-35
2022/12/26 10:56:17;;;;;;;14.20;2.57;;;;;;;7.83;100.00;101335.34;5052717;28;20104;-38
2022/12/26 10:58:43;;;;;;;14.18;1.88;;;;;;;7.76;100.00;101332.41;5050855;28;20021;-36
2022/12/26 11:01:27;;;;;;;7.32;1.35;;;;;;;7.59;100.00;101336.75;5051767;28;20028;-36
2022/12/26 11:03:57;;;;;;;10.13;1.70;;;;;;;7.42;100.00;101342.91;5051564;28;20375;-36
2022/12/26 11:06:27;;;;;;;9.68;1.40;;;;;;;7.47;100.00;101356.69;5050985;28;20104;-36
2022/12/26 11:08:52;;;;;;;6.03;1.30;;;;;;;7.34;100.00;101357.03;5050972;28;20075;-38
2022/12/26 11:11:44;;;;;;;16.05;1.60;;;;;;;7.28;100.00;101364.84;5050142;28;20423;-36
2022/12/26 11:14:35;;;;;;;7.55;1.10;;;;;;;7.33;100.00;101367.91;5051445;28;20267;-36
2022/12/26 11:17:06;;;;;;;11.00;1.70;;;;;;;7.40;100.00;101377.06;5050060;28;20028;-34
2022/12/26 11:19:37;;;;;;;7.88;1.50;;;;;;;7.64;100.00;101390.75;5049929;28;20029;-37
2022/12/26 11:22:14;;;;;;;8.73;1.48;;;;;;;7.91;100.00;101389.03;5050133;28;20040;-37
2022/12/26 11:24:39;;;;;;;4.32;1.00;;;;;;;8.35;100.00;101395.34;5050076;28;20033;-35
2022/12/26 11:27:19;;;;;;;4.90;1.00;;;;;;;8.86;100.00;101395.59;5049473;28;20044;-38
2022/12/26 11:30:10;;;;;;;10.27;1.08;;;;;;;9.33;100.00;101399.75;5066308;28;20137;-36
2022/12/26 11:32:36;;;;;;;13.05;1.30;;;;;;;9.72;100.00;101392.03;5049325;28;20043;-36
2022/12/26 11:35:02;;;;;;;6.43;1.05;;;;;;;10.13;100.00;101392.09;5066263;28;20025;-38
2022/12/26 11:37:30;;;;;;;9.50;1.38;;;;;;;10.59;100.00;101402.47;5066643;28;20033;-38
2022/12/26 11:39:56;;;;;;;6.93;1.17;;;;;;;11.20;93.62;101393.78;5066243;28;20071;-36
2022/12/26 11:42:23;;;;;;;5.47;0.77;;;;;;;11.30;90.47;101396.28;5067213;28;20426;-35
2022/12/26 11:44:51;;;;;;;5.23;1.40;;;;;;;11.78;82.13;101404.34;5067698;28;20032;-37
2022/12/26 11:47:19;;;;;;;10.40;1.45;;;;;;;11.60;78.96;101402.72;5067231;28;20305;-36
2022/12/26 11:49:46;;;;;;;6.05;1.00;;;;;;;11.11;80.57;101402.91;5067241;28;20025;-36
2022/12/26 11:52:45;;;;;;;11.25;1.35;;;;;;;10.50;81.72;101406.97;5065956;28;20453;-34
2022/12/26 11:55:28;;;;;;;5.90;1.13;;;;;;;10.19;84.07;101414.81;5067110;28;20163;-36
2022/12/26 11:58:05;;;;;;;8.00;1.10;;;;;;;9.76;87.82;101406.78;5066738;28;20056;-35
2022/12/26 12:00:41;;;;;;;3.38;0.90;;;;;;;9.61;90.23;101417.34;5067177;28;20029;-36
2022/12/26 12:03:16;;;;;;;8.65;1.10;;;;;;;9.52;91.70;101417.47;5066831;28;20033;-36
2022/12/26 12:05:50;;;;;;;8.00;1.52;;;;;;;9.51;91.78;101415.78;5065611;28;20383;-36
2022/12/26 12:08:30;;;;;;;10.32;1.48;;;;;;;9.27;94.33;101416.47;5065525;28;20029;-37
2022/12/26 12:11:08;;;;;;;10.93;1.05;;;;;;;9.56;93.49;101414.28;5067156;28;20029;-36
2022/12/26 12:13:39;;;;;;;10.32;1.65;;;;;;;9.46;95.80;101416.25;5065976;28;20036;-35
2022/12/26 12:16:36;;;;;;;10.32;1.73;;;;;;;9.14;97.50;101416.94;5066790;28;20024;-36
2022/12/26 12:19:27;;;;;;;15.10;1.33;;;;;;;9.03;97.68;101418.03;5066450;28;20024;-37
2022/12/26 12:22:26;;;;;;;7.13;1.27;;;;;;;8.96;100.00;101431.25;5065324;28;20032;-35
2022/12/26 12:25:20;;;;;;;12.43;1.35;;;;;;;8.90;100.00;101431.88;5062125;28;20033;-37
2022/12/26 12:27:51;;;;;;;6.88;1.05;;;;;;;8.99;100.00;101436.28;5064731;28;20041;-36
2022/12/26 12:30:17;;;;;;;7.32;1.30;;;;;;;8.83;96.95;101436.16;5065263;28;20452;-35
2022/12/26 12:32:45;;;;;;;5.03;0.93;;;;;;;8.73;99.25;101446.16;5066363;28;20025;-36
2022/12/26 12:35:16;;;;;;;8.00;1.10;;;;;;;8.57;99.39;101446.84;5066041;28;20025;-35
2022/12/26 12:37:59;;;;;;;14.05;1.38;;;;;;;8.33;100.00;101450.97;5066296;28;20039;-38
2022/12/26 12:40:57;;;;;;;6.90;1.13;;;;;;;8.18;100.00;101455.16;5057550;28;20379;-38
2022/12/26 12:43:22;;;;;;;;;;;;;;;8.17;100.00;101456.16;5034891;28;20032;-35
2022/12/26 12:46:02;;;;;;;8.37;1.03;;;;;;;8.11;99.54;101452.25;5053016;28;20435;-35
2022/12/26 12:48:49;;;;;;;5.90;1.20;;;;;;;8.14;100.00;101445.75;5053050;28;20631;-37
2022/12/26 12:51:26;;;;;;;12.20;1.30;;;;;;;8.03;100.00;101459.34;5053127;28;20033;-35
2022/12/26 12:54:22;;;;;;;10.35;1.30;;;;;;;7.92;97.89;101468.41;5052472;28;20074;-36
2022/12/26 12:56:53;;;;;;;6.78;1.10;;;;;;;7.75;93.68;101472.75;5052572;28;20446;-36
2022/12/26 12:59:31;;;;;;;10.32;0.95;;;;;;;7.76;94.39;101465.56;5052458;28;20099;-35
2022/12/26 13:02:00;;;;;;;8.85;1.40;;;;;;;7.76;91.63;101461.03;5051469;28;20108;-36
2022/12/26 13:04:33;;;;;;;9.05;0.98;;;;;;;7.74;92.11;101465.72;5051077;28;20027;-36
2022/12/26 13:07:06;;;;;;;7.18;1.20;;;;;;;7.83;87.20;101458.63;5052366;28;20495;-36
2022/12/26 13:09:37;;;;;;;5.05;0.90;;;;;;;7.87;89.55;101471.56;5052453;28;20038;-38
2022/12/26 13:12:27;;;;;;;6.40;1.10;;;;;;;7.94;90.42;101473.66;5051407;28;20468;-36
2022/12/26 13:14:58;;;;;;;7.32;1.20;;;;;;;8.13;89.21;101482.41;5048192;28;20037;-37
2022/12/26 13:17:32;;;;;;;5.60;1.10;;;;;;;8.28;90.36;101489.97;5050969;28;20436;-37
2022/12/26 13:20:12;;;;;;;8.35;1.13;;;;;;;8.16;86.56;101483.94;5050643;28;20033;-38
2022/12/26 13:25:52;;;;;;;9.65;1.15;;;;;;;8.32;82.95;101480.59;5050640;28;20122;-37
2022/12/26 13:28:21;;;;;;;11.07;1.38;;;;;;;8.26;82.25;101475.84;5051944;28;20496;-37
2022/12/26 13:30:52;;;;;;;8.88;1.00;;;;;;;8.21;81.56;101488.88;5050540;28;20021;-38
2022/12/26 13:33:18;;;;;;;4.85;1.10;;;;;;;8.03;85.53;101488.81;5052294;28;20025;-38
2022/12/26 13:35:58;;;;;;;9.82;0.90;;;;;;;8.02;87.80;101498.69;5051879;28;20139;-38
2022/12/26 13:38:42;;;;;;;8.82;1.55;;;;;;;8.19;87.29;101496.22;5051868;28;20531;-38
2022/12/26 13:44:07;;;;;;;8.65;1.17;;;;;;;8.93;82.27;101505.88;5051029;28;20062;-35